Hauptseite
METAR-TAF:

METAR-TAF

Flughäfen :

Durham, England

Durham Tees Valley Airport

Breite: 54-31N, Länge: 001-25W, Höhe: 37 m

Beobachtung

Neuester Wetterbericht von vor 11 Minuten, um 09:50 UTC
Wind 9 kt aus Ost
Temperatur 3°C
Luftfeuchtigkeit 65%
Luftdruck 1032 hPa
Sichtweite 10 km oder mehr
Durchbrochene Bewölkung in der Höhe von 2600 ft

METAR: EGNV 250950Z 10009KT 9999 BKN026 03/M03 Q1032

Zeit: 10:01 (10:01 UTC)

Prognose

Neuester Wetterbericht von vor 2 Stunden und 3 Minuten, um 07:58 UTC
Gültige Prognose vom 25 um 09 UTC bis 25 um 18 UTC
Wind 9 kt aus Ost/Südost
Sichtweite 10 km oder mehr
Durchbrochene Bewölkung in der Höhe von 2500 ft

TAF: EGNV 250758Z 2509/2518 11009KT 9999 BKN025

Wetterbeobachtungen und Prognosen von mehr als 4000 Flughäfen (METAR und TAF Bericht).

Die verfügbaren Stationen werden durch gelbe und rote Markierungen auf der Karte dargestellt.

Führen Sie die Maus auf sie, um den Namen der Station zu sehen.

Darauf klicken, um die Beobachtung von Wetterbeobachtungen und Prognosen zu sehen.

Um die Karte zu ändern : klicken Sie auf den grünen Tasten mit einem schwarzen Kreuz Zum Vergrößern, auf den grünen Button mit einem Gedankenstrich zu verkleinern, oder auf die grünen Pfeile für benachbarte Karten.


METAR-TAF: